This is the latest recevied weather packets stored in our database for station/object N4YH-13. If no packets are shown the sender has not sent any weather packets the latest 1 day(s).
| Time | Temp. | Humidity | Pressure | Rain* | Wind** | Luminosity | Snow |
|---|---|---|---|---|---|---|---|
| 1778080564 | 16.67° C | 99% | 1011 hPa | 6.35 mm | - | - | - |
| 1778079844 | 16.67° C | 99% | 1011 hPa | 6.6 mm | - | - | - |
| 1778079724 | 16.67° C | 99% | 1011.3 hPa | 6.86 mm | - | - | - |
| 1778078884 | 16.67° C | 99% | 1012.2 hPa | 7.11 mm | - | - | - |
| 1778078764 | 16.67° C | 99% | 1012.2 hPa | 6.86 mm | - | - | - |
| 1778078164 | 16.67° C | 99% | 1012.2 hPa | 6.86 mm | - | - | - |
| 1778078044 | 16.67° C | 98% | 1012.2 hPa | 7.11 mm | - | - | - |
| 1778077084 | 16.67° C | 98% | 1012.4 hPa | 7.11 mm | - | - | - |
| 1778076364 | 16.67° C | 98% | 1012.4 hPa | 7.62 mm | - | - | - |
| 1778075644 | 16.67° C | 98% | 1012.5 hPa | 7.87 mm | - | - | - |
| 1778074804 | 16.67° C | 98% | 1012.2 hPa | 7.87 mm | - | - | - |
| 1778074084 | 16.67° C | 98% | 1011.8 hPa | 7.37 mm | - | - | - |
| 1778073964 | 16.67° C | 98% | 1011.8 hPa | 7.37 mm | - | - | - |
| 1778073844 | 16.67° C | 98% | 1011.8 hPa | 7.37 mm | - | - | - |
| 1778073244 | 16.67° C | 97% | 1012.1 hPa | 6.6 mm | - | - | - |
| 1778073124 | 16.67° C | 97% | 1012.1 hPa | 6.35 mm | - | - | - |
| 1778073004 | 16.67° C | 97% | 1012.1 hPa | 6.1 mm | - | - | - |
| 1778072284 | 16.11° C | 97% | 1011.4 hPa | 4.57 mm | - | - | - |
| 1778072164 | 16.11° C | 97% | 1011.4 hPa | 4.32 mm | - | - | - |
| 1778071564 | 16.67° C | 96% | 1011 hPa | 3.3 mm | - | - | - |
| 1778071444 | 16.67° C | 96% | 1011 hPa | 2.79 mm | - | - | - |
| 1778070124 | 16.67° C | 95% | 1010.6 hPa | 1.02 mm | - | - | - |
| 1778070004 | 16.67° C | 95% | 1010.6 hPa | 0.76 mm | - | - | - |
| 1778069044 | 16.67° C | 94% | 1010.5 hPa | 0.25 mm | - | - | - |
| 1778068324 | 16.67° C | 93% | 1010.4 hPa | 0 mm | - | - | - |
* Rain latest hour (hover to see other rain measurements)
** Current wind speed in m/s (hover to see current wind gust speed)